Time;durP1;ratioP1;P1;durP2;ratioP2;P2;SDS_P1;SDS_P2;PMS_P1;PMS_P2;Temp;Humidity;BMP_temperature;BMP_pressure;BME280_temperature;BME280_humidity;BME280_pressure;Samples;Min_cycle;Max_cycle;Signal;HPM_P1;HPM_P2
2023/01/03 00:00:40;;;;;;;404.63;254.05;;;4.40;99.90;;;;;;4990400;28;20669;-79
2023/01/03 00:03:07;;;;;;;425.45;260.83;;;4.50;99.90;;;;;;4988570;28;20054;-76
2023/01/03 00:05:35;;;;;;;429.10;264.73;;;4.50;42.80;;;;;;4990699;28;20117;-76
2023/01/03 00:08:04;;;;;;;428.73;265.63;;;4.40;3.20;;;;;;4990052;28;20034;-76
2023/01/03 00:10:31;;;;;;;406.40;250.98;;;4.40;1.00;;;;;;4990287;28;20125;-76
2023/01/03 00:12:58;;;;;;;409.02;247.30;;;4.40;99.40;;;;;;4990850;28;20035;-77
2023/01/03 00:15:26;;;;;;;410.90;249.88;;;4.40;99.90;;;;;;4994318;28;20046;-77
2023/01/03 00:17:55;;;;;;;417.80;253.52;;;4.50;99.90;;;;;;4993980;28;20038;-78
2023/01/03 00:20:22;;;;;;;384.73;236.65;;;4.50;99.90;;;;;;4993737;28;20046;-75
2023/01/03 00:22:50;;;;;;;399.70;245.80;;;4.40;99.90;;;;;;5000118;28;20125;-75
2023/01/03 00:25:17;;;;;;;374.85;230.10;;;4.40;99.90;;;;;;5012092;28;20126;-75
2023/01/03 00:27:45;;;;;;;414.00;259.23;;;4.40;69.90;;;;;;5014163;28;20102;-75
2023/01/03 00:30:13;;;;;;;403.10;249.75;;;4.30;99.90;;;;;;4996196;28;20062;-79
2023/01/03 00:32:42;;;;;;;380.35;239.70;;;4.30;99.90;;;;;;4995145;28;20509;-78
2023/01/03 00:35:10;;;;;;;360.10;224.05;;;4.30;59.60;;;;;;4993389;28;20046;-79
2023/01/03 00:37:37;;;;;;;337.00;211.13;;;4.30;1.00;;;;;;4995143;28;20041;-77
2023/01/03 00:40:05;;;;;;;271.83;166.75;;;4.20;99.90;;;;;;4994257;28;20053;-78
2023/01/03 00:43:27;;;;;;;246.07;149.43;;;4.20;99.90;;;;;;4997657;28;20042;-76
2023/01/03 00:45:20;;;;;;;309.45;193.82;;;4.20;1.00;;;;;;5002064;28;20077;-74
2023/01/03 00:47:49;;;;;;;302.88;185.77;;;4.10;99.90;;;;;;4994161;28;20034;-77
2023/01/03 00:50:17;;;;;;;303.25;188.65;;;4.10;99.90;;;;;;4994602;28;20038;-75
2023/01/03 00:52:44;;;;;;;333.20;207.25;;;4.10;99.90;;;;;;4999793;28;20051;-74
2023/01/03 00:55:12;;;;;;;335.05;210.07;;;4.10;99.90;;;;;;4994045;28;20038;-76
2023/01/03 00:57:39;;;;;;;340.55;207.63;;;4.20;99.90;;;;;;4993058;28;20045;-76
2023/01/03 01:00:08;;;;;;;329.48;204.23;;;4.10;44.80;;;;;;4993022;28;20038;-76
2023/01/03 01:02:35;;;;;;;330.63;205.45;;;4.10;1.00;;;;;;4993335;28;20073;-75
2023/01/03 01:05:04;;;;;;;325.35;200.93;;;4.00;1.00;;;;;;4996724;28;20046;-74
2023/01/03 01:07:32;;;;;;;326.08;201.45;;;4.00;1.00;;;;;;4999632;28;20070;-77
2023/01/03 01:09:59;;;;;;;335.48;205.27;;;4.00;1.00;;;;;;4993684;28;20038;-78
2023/01/03 01:12:27;;;;;;;341.60;209.38;;;3.90;1.00;;;;;;4993576;28;20611;-77
2023/01/03 01:14:55;;;;;;;341.77;204.13;;;3.80;1.00;;;;;;4997873;28;20061;-75
2023/01/03 01:17:22;;;;;;;337.38;204.05;;;3.80;1.00;;;;;;5007454;28;20026;-75
2023/01/03 01:19:50;;;;;;;331.17;199.57;;;3.70;1.00;;;;;;5000865;28;20046;-76
2023/01/03 01:22:18;;;;;;;319.00;193.20;;;3.80;65.70;;;;;;4993691;28;20046;-77
2023/01/03 01:24:46;;;;;;;342.60;198.02;;;3.80;99.90;;;;;;4991684;28;20498;-76
2023/01/03 01:27:13;;;;;;;298.08;182.15;;;3.70;99.90;;;;;;4994320;28;20121;-77
2023/01/03 01:29:42;;;;;;;291.52;165.80;;;3.70;99.90;;;;;;5002429;28;20073;-73
2023/01/03 01:32:09;;;;;;;294.40;169.43;;;3.80;99.90;;;;;;5012918;28;20105;-73
2023/01/03 01:34:37;;;;;;;265.65;159.55;;;3.80;99.90;;;;;;5003600;28;20080;-75
2023/01/03 01:37:04;;;;;;;289.63;169.32;;;3.90;99.90;;;;;;4999886;28;20226;-77
2023/01/03 01:39:33;;;;;;;258.75;152.43;;;3.80;99.90;;;;;;4993374;28;20034;-75
2023/01/03 01:44:53;;;;;;;251.18;153.70;;;3.70;99.90;;;;;;4997088;28;20422;-78
2023/01/03 01:47:29;;;;;;;226.48;140.35;;;3.70;99.90;;;;;;4993189;28;20533;-75
2023/01/03 01:50:01;;;;;;;218.75;139.85;;;3.60;99.90;;;;;;4994690;28;20049;-77
2023/01/03 01:52:31;;;;;;;230.25;145.65;;;3.60;99.90;;;;;;4992922;28;20042;-77
2023/01/03 01:55:02;;;;;;;262.80;166.02;;;3.70;99.90;;;;;;4993525;28;20041;-79
2023/01/03 01:57:31;;;;;;;255.10;158.35;;;3.60;99.90;;;;;;4993199;28;20670;-76
2023/01/03 02:00:00;;;;;;;240.25;145.38;;;3.60;99.90;;;;;;4993461;28;20066;-76
2023/01/03 02:02:27;;;;;;;252.30;155.90;;;3.60;99.90;;;;;;4993159;28;20081;-76
2023/01/03 02:04:56;;;;;;;253.27;153.05;;;3.60;99.90;;;;;;4992430;28;20565;-77
2023/01/03 02:07:24;;;;;;;238.00;146.10;;;3.60;99.90;;;;;;4993666;28;20050;-76
2023/01/03 02:09:55;;;;;;;240.07;142.75;;;3.60;99.90;;;;;;4993291;28;20089;-76
2023/01/03 02:15:26;;;;;;;209.43;124.55;;;3.60;99.90;;;;;;4994382;28;20035;-74
2023/01/03 02:18:01;;;;;;;170.48;106.13;;;3.50;99.90;;;;;;5001540;28;20100;-78
2023/01/03 02:20:39;;;;;;;195.57;120.00;;;3.60;99.90;;;;;;5012412;28;20046;-78
2023/01/03 02:24:05;;;;;;;181.98;109.18;;;3.60;99.90;;;;;;4991765;28;20057;-78
2023/01/03 02:27:01;;;;;;;196.63;118.75;;;3.60;99.90;;;;;;4969374;28;20091;-76
2023/01/03 02:30:19;;;;;;;209.50;125.50;;;3.60;99.90;;;;;;4979281;28;20062;-76
2023/01/03 02:32:53;;;;;;;208.15;126.20;;;3.50;99.90;;;;;;4998561;28;20042;-75
2023/01/03 02:35:28;;;;;;;196.20;122.80;;;3.50;99.90;;;;;;4992573;28;20046;-76
2023/01/03 02:38:00;;;;;;;162.70;105.53;;;3.50;99.90;;;;;;4990723;28;20052;-77
2023/01/03 02:40:35;;;;;;;165.43;102.45;;;3.40;99.90;;;;;;4982020;28;20065;-77
2023/01/03 02:43:07;;;;;;;163.93;99.50;;;3.40;99.90;;;;;;4989544;28;20138;-75
2023/01/03 02:45:58;;;;;;;187.65;109.53;;;3.40;99.90;;;;;;4992280;28;20035;-77
2023/01/03 02:48:36;;;;;;;177.18;106.57;;;3.50;99.90;;;;;;4997692;28;20049;-74
2023/01/03 02:51:09;;;;;;;192.35;113.15;;;3.50;99.90;;;;;;4995701;28;20410;-76
2023/01/03 02:53:40;;;;;;;187.30;111.40;;;3.50;99.90;;;;;;4990883;28;20402;-74
2023/01/03 02:56:10;;;;;;;204.07;117.93;;;3.40;99.90;;;;;;5003811;28;20106;-77
2023/01/03 02:58:40;;;;;;;207.57;115.38;;;3.30;1.00;;;;;;5005390;28;20042;-77
2023/01/03 03:01:10;;;;;;;210.10;119.93;;;3.20;1.00;;;;;;4990928;28;20053;-77
2023/01/03 03:03:40;;;;;;;212.95;121.95;;;3.10;99.90;;;;;;5012017;28;20038;-74
2023/01/03 03:06:13;;;;;;;204.52;120.68;;;3.00;99.90;;;;;;4992054;28;20049;-78
2023/01/03 03:08:43;;;;;;;222.25;124.65;;;3.10;99.90;;;;;;4991386;28;20043;-75
2023/01/03 03:14:00;;;;;;;196.10;112.20;;;3.20;99.90;;;;;;5003320;28;20514;-74
2023/01/03 03:16:48;;;;;;;197.82;114.88;;;3.20;99.90;;;;;;5002282;28;20502;-77
2023/01/03 03:24:59;;;;;;;181.40;108.45;;;3.10;99.90;;;;;;4995677;23;20055;-72
2023/01/03 03:30:16;;;;;;;163.27;94.97;;;3.10;99.90;;;;;;4968609;28;20070;-72
2023/01/03 03:32:47;;;;;;;157.25;97.10;;;3.10;99.90;;;;;;4968272;28;20386;-72
2023/01/03 03:35:20;;;;;;;170.30;97.00;;;3.10;99.90;;;;;;4966550;28;20391;-72
2023/01/03 03:37:50;;;;;;;158.57;94.97;;;3.10;99.90;;;;;;4968638;28;20043;-72
2023/01/03 03:46:01;;;;;;;166.48;96.32;;;3.10;99.90;;;;;;4960184;28;20053;-73
2023/01/03 03:49:36;;;;;;;157.02;90.05;;;3.10;99.90;;;;;;4959635;28;20109;-71
2023/01/03 03:51:27;;;;;;;149.15;88.78;;;3.10;99.90;;;;;;4959036;28;20094;-74
2023/01/03 03:53:56;;;;;;;153.60;87.60;;;3.10;99.90;;;;;;4959708;28;20047;-73
2023/01/03 03:56:30;;;;;;;146.82;86.80;;;3.10;99.90;;;;;;4959454;28;20039;-71
2023/01/03 03:59:03;;;;;;;140.10;85.65;;;3.10;99.90;;;;;;4960208;28;20562;-73
2023/01/03 04:01:31;;;;;;;138.30;81.07;;;3.10;99.90;;;;;;4960653;28;20050;-72
2023/01/03 04:04:03;;;;;;;144.93;81.57;;;3.10;99.90;;;;;;4963255;28;20070;-73
2023/01/03 04:06:38;;;;;;;127.97;77.40;;;3.10;99.90;;;;;;4969872;28;20516;-71
2023/01/03 04:09:07;;;;;;;124.88;73.22;;;3.10;99.90;;;;;;4961625;28;20051;-73
2023/01/03 04:11:35;;;;;;;118.25;72.20;;;3.10;99.90;;;;;;4960074;28;20047;-72
2023/01/03 04:14:02;;;;;;;135.75;79.13;;;3.10;99.90;;;;;;4960650;28;20051;-72
2023/01/03 04:16:30;;;;;;;147.60;81.57;;;3.10;99.90;;;;;;4960058;28;20134;-73
2023/01/03 04:18:57;;;;;;;140.93;83.13;;;3.00;99.90;;;;;;4960126;28;20523;-73
2023/01/03 04:21:24;;;;;;;130.30;76.90;;;3.00;99.90;;;;;;4963400;28;20499;-74
2023/01/03 04:23:53;;;;;;;144.73;81.53;;;3.00;99.90;;;;;;4961437;28;20043;-73
2023/01/03 04:26:21;;;;;;;146.02;85.22;;;3.00;99.90;;;;;;4959784;28;20055;-72
2023/01/03 04:28:48;;;;;;;151.88;89.18;;;3.00;99.90;;;;;;4959891;28;20058;-72
2023/01/03 04:31:15;;;;;;;157.95;89.15;;;3.00;99.90;;;;;;4959128;28;20047;-72
2023/01/03 04:33:43;;;;;;;157.15;85.85;;;3.00;12.90;;;;;;4960072;28;20039;-73
2023/01/03 04:36:10;;;;;;;157.55;88.55;;;2.90;1.00;;;;;;4958991;28;20051;-72
2023/01/03 04:38:38;;;;;;;198.32;92.28;;;2.90;23.80;;;;;;4959420;28;20047;-72
2023/01/03 04:41:08;;;;;;;183.80;97.38;;;2.70;99.90;;;;;;4960546;28;20043;-72
2023/01/03 04:46:21;;;;;;;155.35;95.63;;;2.60;99.90;;;;;;4959213;28;20039;-71
2023/01/03 04:48:48;;;;;;;152.75;94.20;;;2.70;99.90;;;;;;4959637;28;20197;-71
2023/01/03 04:51:16;;;;;;;157.55;97.20;;;2.70;99.90;;;;;;4960371;28;20042;-73
2023/01/03 04:53:43;;;;;;;151.68;93.40;;;2.70;99.90;;;;;;4960595;28;20047;-72
2023/01/03 04:56:12;;;;;;;142.95;92.32;;;2.70;99.90;;;;;;4960540;28;20046;-71
2023/01/03 04:58:39;;;;;;;135.57;88.43;;;2.70;99.90;;;;;;4957265;28;20399;-71
2023/01/03 05:01:08;;;;;;;140.00;87.00;;;2.70;99.90;;;;;;4960944;28;20039;-72
2023/01/03 05:03:36;;;;;;;141.40;85.55;;;2.80;99.90;;;;;;4963591;28;20091;-73
2023/01/03 05:06:06;;;;;;;144.18;84.22;;;2.80;99.90;;;;;;4964371;28;20407;-71
2023/01/03 05:08:34;;;;;;;143.50;83.90;;;2.80;99.90;;;;;;4962775;28;20039;-72
2023/01/03 05:11:02;;;;;;;138.75;84.50;;;2.80;99.90;;;;;;4963807;28;20035;-73
2023/01/03 05:13:32;;;;;;;154.30;87.43;;;2.70;99.90;;;;;;4963356;28;20415;-73
2023/01/03 05:16:05;;;;;;;144.88;92.45;;;2.70;99.90;;;;;;4962105;28;20065;-71
2023/01/03 05:18:34;;;;;;;143.93;89.70;;;2.70;99.90;;;;;;4961095;28;20043;-73
2023/01/03 05:26:41;;;;;;;124.50;78.13;;;2.60;99.90;;;;;;4963183;28;20119;-72
2023/01/03 05:29:11;;;;;;;124.85;76.32;;;2.60;99.90;;;;;;4962809;28;20058;-71
2023/01/03 05:31:38;;;;;;;115.22;74.10;;;2.70;99.90;;;;;;4962733;28;20038;-71
2023/01/03 05:34:05;;;;;;;117.47;73.70;;;2.70;99.90;;;;;;4962585;28;20054;-71
2023/01/03 05:36:33;;;;;;;136.45;81.47;;;2.70;99.90;;;;;;4962235;28;20047;-72
2023/01/03 05:39:00;;;;;;;132.68;79.40;;;2.70;99.90;;;;;;4960512;28;20047;-72
2023/01/03 05:44:10;;;;;;;136.65;79.18;;;2.60;99.90;;;;;;4952009;28;20051;-73
2023/01/03 05:46:37;;;;;;;135.75;79.85;;;2.60;99.90;;;;;;4964080;28;20035;-72
2023/01/03 05:49:05;;;;;;;144.52;81.15;;;2.60;99.90;;;;;;4962279;28;20046;-73
2023/01/03 05:51:32;;;;;;;163.90;86.97;;;2.60;99.90;;;;;;4960463;28;20043;-72
2023/01/03 05:54:00;;;;;;;161.55;88.45;;;2.50;99.90;;;;;;4962010;28;20055;-71
2023/01/03 05:56:28;;;;;;;158.80;83.55;;;2.50;99.90;;;;;;4963606;28;20061;-73
2023/01/03 05:58:55;;;;;;;152.77;86.35;;;2.50;99.90;;;;;;4962298;28;20039;-72
2023/01/03 06:01:25;;;;;;;136.70;78.05;;;2.50;99.90;;;;;;4960799;28;20039;-73
2023/01/03 06:03:52;;;;;;;138.85;78.22;;;2.40;99.90;;;;;;4960680;28;20043;-72
2023/01/03 06:06:20;;;;;;;178.68;101.20;;;2.40;99.90;;;;;;4962302;28;20050;-73
2023/01/03 06:08:47;;;;;;;234.48;124.10;;;2.40;99.90;;;;;;4960722;28;20043;-72
2023/01/03 06:11:16;;;;;;;158.65;85.25;;;2.40;99.90;;;;;;4959031;28;20492;-73
2023/01/03 06:13:43;;;;;;;152.63;82.18;;;2.40;99.90;;;;;;4958140;28;20047;-72
2023/01/03 06:19:00;;;;;;;160.15;81.00;;;2.40;99.90;;;;;;4976123;28;20051;-73
2023/01/03 06:21:28;;;;;;;176.40;88.32;;;2.40;99.90;;;;;;4965034;28;20043;-71
2023/01/03 06:23:55;;;;;;;193.82;98.80;;;2.40;99.90;;;;;;4961304;28;20061;-72
2023/01/03 06:26:24;;;;;;;176.27;91.13;;;2.40;99.90;;;;;;4963538;28;20051;-71
2023/01/03 06:28:53;;;;;;;179.07;91.25;;;2.40;99.90;;;;;;4963081;28;20039;-71
2023/01/03 06:31:20;;;;;;;224.48;100.80;;;2.40;99.90;;;;;;4963085;28;20039;-72
2023/01/03 06:33:48;;;;;;;177.70;91.68;;;2.40;99.90;;;;;;4961456;28;20050;-71
2023/01/03 06:36:19;;;;;;;158.50;81.32;;;2.30;99.90;;;;;;4960911;28;20058;-72
2023/01/03 06:38:47;;;;;;;163.15;88.90;;;2.40;99.90;;;;;;4960867;28;20043;-71
2023/01/03 06:41:15;;;;;;;186.27;86.25;;;2.40;99.90;;;;;;4962909;28;20042;-72
2023/01/03 06:43:43;;;;;;;154.45;80.85;;;2.40;99.90;;;;;;4961802;28;20075;-73
2023/01/03 06:54:29;;;;;;;;;;;2.90;99.90;;;;;;4960959;28;20114;-71
2023/01/03 06:56:57;;;;;;;147.13;87.45;;;2.90;99.90;;;;;;4959172;28;19922;-72
2023/01/03 06:59:25;;;;;;;143.73;85.85;;;2.90;99.90;;;;;;4961024;28;20050;-73
2023/01/03 07:01:53;;;;;;;136.43;86.10;;;3.00;99.90;;;;;;4961654;28;20051;-71
2023/01/03 07:04:22;;;;;;;151.77;89.93;;;3.00;99.90;;;;;;4961263;28;20046;-72
2023/01/03 07:06:51;;;;;;;155.30;92.32;;;3.00;99.90;;;;;;4960945;28;20042;-73
2023/01/03 07:09:18;;;;;;;164.00;97.25;;;3.00;99.90;;;;;;4959428;28;20234;-71
2023/01/03 07:11:46;;;;;;;164.20;94.20;;;3.10;99.90;;;;;;4960474;28;20085;-73
2023/01/03 07:14:12;;;;;;;177.23;100.95;;;3.10;99.90;;;;;;4960808;28;20043;-72
2023/01/03 07:16:43;;;;;;;179.88;101.70;;;3.20;99.90;;;;;;4960970;28;20043;-73
2023/01/03 07:19:13;;;;;;;170.18;101.93;;;3.20;99.90;;;;;;4960735;28;20039;-73
2023/01/03 07:21:41;;;;;;;180.70;101.15;;;3.30;99.90;;;;;;4960491;28;20051;-71
2023/01/03 07:24:12;;;;;;;189.48;108.88;;;3.30;1.00;;;;;;4960725;28;20047;-71
2023/01/03 07:26:40;;;;;;;216.70;121.72;;;3.40;99.90;;;;;;4959834;28;20585;-73
2023/01/03 07:29:09;;;;;;;204.82;120.53;;;3.40;1.00;;;;;;4959998;28;20039;-72
2023/01/03 07:31:40;;;;;;;203.80;118.75;;;3.40;1.00;;;;;;4959831;28;20057;-72
2023/01/03 07:34:07;;;;;;;210.75;120.82;;;3.40;1.00;;;;;;4959918;28;20047;-72
2023/01/03 07:36:35;;;;;;;206.93;120.43;;;3.40;1.00;;;;;;4961004;28;20050;-73
2023/01/03 07:39:03;;;;;;;183.23;106.30;;;3.60;1.00;;;;;;4959937;28;20087;-73
2023/01/03 07:44:13;;;;;;;168.98;100.25;;;3.70;1.00;;;;;;4942455;28;20059;-72
2023/01/03 07:46:41;;;;;;;174.55;98.07;;;3.80;99.90;;;;;;4960191;28;20035;-72
2023/01/03 07:49:08;;;;;;;184.50;101.10;;;4.00;1.00;;;;;;4959058;28;20047;-73
2023/01/03 07:51:36;;;;;;;185.15;106.15;;;4.10;1.00;;;;;;4959655;28;20043;-74
2023/01/03 07:54:03;;;;;;;182.20;107.03;;;4.20;1.00;;;;;;4960087;28;20348;-73
2023/01/03 07:56:32;;;;;;;191.82;118.22;;;4.20;1.00;;;;;;4959003;28;20042;-73
2023/01/03 07:59:00;;;;;;;212.10;125.45;;;4.20;1.00;;;;;;4959965;28;20046;-72
2023/01/03 08:01:28;;;;;;;199.20;116.55;;;4.20;1.00;;;;;;4959855;28;20510;-72
2023/01/03 08:03:56;;;;;;;200.65;118.53;;;4.40;99.90;;;;;;4960213;28;20503;-73
2023/01/03 08:06:24;;;;;;;216.98;128.32;;;4.70;1.00;;;;;;4958672;28;20050;-73
2023/01/03 08:14:20;;;;;;;202.43;121.82;;;5.20;1.00;;;;;;4958384;28;20043;-71
2023/01/03 08:16:47;;;;;;;200.73;122.78;;;5.40;60.90;;;;;;4957145;28;20091;-74
2023/01/03 08:19:15;;;;;;;209.18;126.47;;;5.40;68.30;;;;;;4958681;28;20058;-73
2023/01/03 08:21:42;;;;;;;215.05;129.32;;;5.40;1.00;;;;;;4957093;28;20042;-73
2023/01/03 08:24:10;;;;;;;176.50;110.75;;;5.30;1.00;;;;;;4959806;28;20043;-71
2023/01/03 08:26:38;;;;;;;181.82;113.53;;;5.20;99.90;;;;;;4958344;28;20922;-73
2023/01/03 08:29:07;;;;;;;171.98;109.15;;;5.30;99.90;;;;;;4956754;28;20039;-73
2023/01/03 08:31:38;;;;;;;182.82;113.80;;;5.20;99.90;;;;;;4957541;28;20067;-72
2023/01/03 08:34:09;;;;;;;169.00;106.70;;;5.30;1.00;;;;;;4960897;28;20047;-73
2023/01/03 08:36:39;;;;;;;189.63;114.03;;;5.50;99.90;;;;;;4962899;28;20051;-73
2023/01/03 08:39:09;;;;;;;186.32;113.43;;;5.70;99.90;;;;;;4976960;28;20085;-73
2023/01/03 08:41:41;;;;;;;179.40;114.18;;;5.80;1.00;;;;;;4963322;28;20149;-73
2023/01/03 08:44:09;;;;;;;191.85;119.18;;;5.90;1.00;;;;;;4961516;28;20151;-72
2023/01/03 08:46:41;;;;;;;183.35;117.70;;;6.00;99.90;;;;;;4962022;28;20055;-74
2023/01/03 08:49:10;;;;;;;178.40;114.35;;;6.10;1.00;;;;;;4960985;28;20035;-72
2023/01/03 08:51:37;;;;;;;178.23;114.00;;;6.10;99.90;;;;;;4963484;28;20138;-73
2023/01/03 08:54:05;;;;;;;184.40;115.65;;;6.10;99.90;;;;;;4966343;28;20039;-73
2023/01/03 08:56:33;;;;;;;195.73;124.68;;;6.20;99.90;;;;;;4968456;28;20047;-72
2023/01/03 08:59:02;;;;;;;194.70;124.05;;;6.30;83.60;;;;;;4967915;28;20058;-72
2023/01/03 09:01:29;;;;;;;195.98;126.65;;;6.40;1.00;;;;;;4974574;28;20049;-73
2023/01/03 09:03:57;;;;;;;207.27;133.23;;;6.60;1.00;;;;;;4972071;28;20047;-73
2023/01/03 09:06:24;;;;;;;194.57;128.88;;;6.70;99.90;;;;;;4974579;28;20100;-71
2023/01/03 09:08:52;;;;;;;195.88;127.65;;;6.80;1.00;;;;;;4971288;28;20039;-72
2023/01/03 09:11:19;;;;;;;180.73;121.25;;;7.00;1.00;;;;;;4961073;28;20043;-72
2023/01/03 09:13:47;;;;;;;191.73;124.63;;;7.20;99.90;;;;;;4961050;28;20053;-73
2023/01/03 09:16:16;;;;;;;182.07;120.32;;;7.40;99.90;;;;;;4977866;28;20047;-71
2023/01/03 09:18:43;;;;;;;184.02;120.47;;;7.60;1.00;;;;;;4961694;28;20035;-72
2023/01/03 09:21:11;;;;;;;182.27;118.40;;;7.70;1.00;;;;;;4963566;28;20041;-71
2023/01/03 09:23:38;;;;;;;174.93;117.07;;;7.90;99.90;;;;;;4960795;28;20043;-74
2023/01/03 09:26:07;;;;;;;172.90;116.45;;;8.00;1.00;;;;;;4963116;28;20059;-72
2023/01/03 09:28:35;;;;;;;171.23;116.57;;;8.20;99.90;;;;;;4961901;28;20069;-72
2023/01/03 09:31:02;;;;;;;180.00;117.50;;;8.30;99.90;;;;;;4961412;28;20205;-74
2023/01/03 09:33:31;;;;;;;172.95;113.38;;;8.40;14.40;;;;;;4958729;28;20047;-72
2023/01/03 09:35:58;;;;;;;169.45;113.13;;;8.50;84.70;;;;;;4960784;28;20035;-72
2023/01/03 09:38:26;;;;;;;166.32;111.00;;;8.70;13.00;;;;;;4962667;28;20049;-75
2023/01/03 09:40:59;;;;;;;168.45;110.53;;;8.90;1.00;;;;;;4962985;28;20062;-72
2023/01/03 09:43:35;;;;;;;168.13;114.82;;;9.00;1.00;;;;;;4963113;28;20058;-77
2023/01/03 09:46:04;;;;;;;186.57;121.65;;;9.10;1.00;;;;;;4961775;28;20482;-79
2023/01/03 09:48:37;;;;;;;186.80;128.48;;;9.20;1.00;;;;;;4961540;28;20105;-78
2023/01/03 10:03:42;;;;;;;176.55;123.47;;;9.40;99.90;;;;;;4961791;28;20425;-73
2023/01/03 10:05:42;;;;;;;158.48;99.07;;;9.90;99.90;;;;;;4922162;28;20071;-73
2023/01/03 10:08:24;;;;;;;158.00;100.70;;;10.10;99.90;;;;;;4960257;28;20146;-72
2023/01/03 10:11:00;;;;;;;333.50;186.95;;;10.40;1.00;;;;;;4961389;28;20094;-74
2023/01/03 10:13:38;;;;;;;136.95;90.95;;;10.60;1.00;;;;;;4962581;28;20047;-74
2023/01/03 10:16:10;;;;;;;125.80;85.80;;;10.70;1.00;;;;;;4958770;28;20045;-73
2023/01/03 10:18:57;;;;;;;154.45;100.07;;;10.90;99.90;;;;;;4960619;28;20495;-72
2023/01/03 10:21:33;;;;;;;132.70;87.65;;;11.00;99.90;;;;;;4961605;28;20050;-71
2023/01/03 10:24:00;;;;;;;128.17;86.27;;;11.10;99.90;;;;;;4960306;28;20045;-73
2023/01/03 10:26:33;;;;;;;111.45;76.18;;;11.30;99.90;;;;;;4959911;28;20315;-73
2023/01/03 10:29:00;;;;;;;124.10;78.07;;;11.40;1.00;;;;;;4962061;28;20051;-72
2023/01/03 10:31:40;;;;;;;106.60;74.45;;;11.60;1.00;;;;;;4962775;28;20035;-72
2023/01/03 10:34:10;;;;;;;103.57;67.72;;;11.70;1.00;;;;;;4961732;28;20047;-72
2023/01/03 10:36:39;;;;;;;85.95;52.17;;;11.80;1.00;;;;;;4961183;28;20047;-73
2023/01/03 10:39:09;;;;;;;61.25;38.58;;;12.00;1.00;;;;;;4961433;28;20043;-72
2023/01/03 10:41:42;;;;;;;53.38;34.45;;;12.10;1.00;;;;;;4964221;28;20125;-73
2023/01/03 10:44:24;;;;;;;48.10;32.10;;;12.20;99.90;;;;;;4959549;28;20130;-72
2023/01/03 10:46:53;;;;;;;47.90;32.15;;;12.30;99.90;;;;;;4964134;28;20046;-72
2023/01/03 10:49:23;;;;;;;50.05;30.90;;;12.40;99.90;;;;;;4963716;28;20035;-72
2023/01/03 10:51:57;;;;;;;39.05;27.63;;;12.40;99.90;;;;;;4965240;28;20048;-73
2023/01/03 10:54:29;;;;;;;47.65;32.35;;;12.50;99.90;;;;;;4961010;28;20054;-72
2023/01/03 10:56:58;;;;;;;50.15;34.17;;;12.50;99.90;;;;;;4961007;28;20043;-72
2023/01/03 10:59:27;;;;;;;57.33;36.25;;;12.60;99.90;;;;;;4959950;28;20043;-73
2023/01/03 11:02:05;;;;;;;61.65;38.83;;;12.70;99.90;;;;;;4962214;28;20046;-72
2023/01/03 11:04:33;;;;;;;61.35;39.65;;;12.80;48.70;;;;;;4962484;28;20049;-72
2023/01/03 11:07:12;;;;;;;63.67;40.05;;;12.80;46.10;;;;;;4961711;28;20117;-72
2023/01/03 11:09:43;;;;;;;59.63;38.25;;;12.80;42.40;;;;;;4961295;28;20046;-71
2023/01/03 11:12:15;;;;;;;62.90;39.35;;;12.90;43.40;;;;;;4961411;28;20044;-72
2023/01/03 11:14:50;;;;;;;60.55;37.58;;;13.00;22.30;;;;;;4961360;28;20035;-71
2023/01/03 11:17:20;;;;;;;53.13;36.13;;;13.10;1.00;;;;;;4960791;28;20042;-71
2023/01/03 11:19:48;;;;;;;45.60;27.02;;;13.20;1.00;;;;;;4960194;28;20533;-72
2023/01/03 11:22:27;;;;;;;50.53;28.95;;;13.20;1.00;;;;;;4961386;28;20130;-72
2023/01/03 11:25:06;;;;;;;50.90;30.75;;;13.20;1.00;;;;;;4960838;28;20495;-72
2023/01/03 11:27:52;;;;;;;48.38;30.60;;;13.30;1.00;;;;;;4957485;28;20126;-72
2023/01/03 11:30:27;;;;;;;43.53;28.58;;;13.30;1.00;;;;;;4960404;28;20041;-72
2023/01/03 11:33:14;;;;;;;45.15;27.13;;;13.40;1.00;;;;;;4962034;28;20070;-71
2023/01/03 11:35:58;;;;;;;35.83;22.65;;;13.50;1.00;;;;;;4959436;28;20510;-73
2023/01/03 11:38:44;;;;;;;34.88;20.33;;;13.50;1.00;;;;;;4960120;28;20043;-72
2023/01/03 11:41:23;;;;;;;28.77;19.60;;;13.50;1.00;;;;;;4959729;28;20042;-73
2023/01/03 11:44:07;;;;;;;31.33;18.55;;;13.60;1.00;;;;;;4960543;28;20415;-72
2023/01/03 11:46:48;;;;;;;29.35;17.92;;;13.60;1.00;;;;;;4960349;28;20045;-71
2023/01/03 11:49:26;;;;;;;27.92;18.40;;;13.70;1.00;;;;;;4959129;28;20414;-72
2023/01/03 11:52:07;;;;;;;24.52;17.23;;;13.70;1.00;;;;;;4960085;28;20054;-73
2023/01/03 11:55:14;;;;;;;34.55;19.00;;;13.70;1.00;;;;;;4967353;28;20043;-72
2023/01/03 11:57:54;;;;;;;31.75;21.67;;;13.80;1.00;;;;;;4943078;28;20171;-71
2023/01/03 12:00:32;;;;;;;32.45;21.13;;;13.80;1.00;;;;;;4959833;28;20078;-72
2023/01/03 12:03:28;;;;;;;35.10;23.58;;;13.80;1.00;;;;;;4960680;28;20066;-72
2023/01/03 12:06:03;;;;;;;38.55;21.92;;;13.80;1.00;;;;;;4959635;28;20065;-72
2023/01/03 12:08:43;;;;;;;32.50;19.55;;;13.90;1.00;;;;;;4961289;28;20039;-72
2023/01/03 12:11:20;;;;;;;35.70;19.30;;;13.90;1.00;;;;;;4963481;28;20073;-72
2023/01/03 12:13:56;;;;;;;27.30;17.70;;;14.00;1.00;;;;;;4965028;28;20118;-72
2023/01/03 12:16:29;;;;;;;29.10;16.95;;;14.00;1.00;;;;;;4963326;28;20492;-73
2023/01/03 12:19:02;;;;;;;34.35;17.65;;;14.00;1.00;;;;;;4964533;28;20063;-72
2023/01/03 12:21:35;;;;;;;29.90;17.40;;;14.10;1.00;;;;;;4965519;28;20130;-72
2023/01/03 12:24:11;;;;;;;34.60;19.80;;;14.00;1.00;;;;;;4964530;28;20050;-73
2023/01/03 12:26:42;;;;;;;35.70;21.20;;;14.10;1.00;;;;;;4964373;28;20043;-72
2023/01/03 12:29:16;;;;;;;31.30;19.02;;;14.10;1.00;;;;;;4964470;28;20535;-71
2023/01/03 12:31:48;;;;;;;33.75;20.02;;;14.10;1.00;;;;;;4963415;28;20315;-72
2023/01/03 12:34:25;;;;;;;31.67;19.02;;;14.10;1.00;;;;;;4962370;28;20454;-73
2023/01/03 12:37:04;;;;;;;38.75;20.75;;;14.20;1.00;;;;;;4963188;28;20062;-72
2023/01/03 12:39:53;;;;;;;33.95;21.50;;;14.20;1.00;;;;;;4962426;28;20141;-72
2023/01/03 12:42:30;;;;;;;40.88;22.48;;;14.20;1.00;;;;;;4964647;28;20046;-73
2023/01/03 12:45:22;;;;;;;34.90;21.30;;;14.30;1.00;;;;;;4963794;28;20047;-71
2023/01/03 12:47:56;;;;;;;34.90;20.60;;;14.30;1.00;;;;;;4964289;28;20049;-71
2023/01/03 12:50:30;;;;;;;34.80;21.10;;;14.30;1.00;;;;;;4962695;28;20046;-74
2023/01/03 12:53:04;;;;;;;35.05;19.33;;;14.30;1.00;;;;;;4964453;28;20051;-73
2023/01/03 12:55:48;;;;;;;34.92;19.30;;;14.20;1.00;;;;;;4963888;28;20031;-73
2023/01/03 12:58:38;;;;;;;32.85;19.30;;;14.20;1.00;;;;;;4963977;28;20107;-72
2023/01/03 13:01:12;;;;;;;32.92;15.73;;;14.30;1.00;;;;;;4964105;28;20043;-73
2023/01/03 13:03:44;;;;;;;24.35;14.45;;;14.30;1.00;;;;;;4965727;28;20129;-75
2023/01/03 13:06:17;;;;;;;24.77;13.43;;;14.30;1.00;;;;;;4970641;28;20111;-74
2023/01/03 13:08:49;;;;;;;22.45;13.00;;;14.20;1.00;;;;;;4964125;28;20058;-71
2023/01/03 13:11:21;;;;;;;24.75;12.00;;;14.30;1.00;;;;;;4964444;28;20155;-71
2023/01/03 13:13:53;;;;;;;19.48;11.63;;;14.30;1.00;;;;;;4962879;28;20051;-72
2023/01/03 13:16:44;;;;;;;20.63;11.25;;;14.30;1.00;;;;;;4963732;28;20514;-72
2023/01/03 13:19:41;;;;;;;21.05;12.48;;;14.30;1.00;;;;;;4963552;28;20058;-73
2023/01/03 13:22:32;;;;;;;23.25;12.68;;;14.30;1.00;;;;;;4963339;28;20474;-72
2023/01/03 13:25:35;;;;;;;21.33;11.00;;;14.30;1.00;;;;;;4962144;28;20531;-73
2023/01/03 13:28:24;;;;;;;20.58;11.18;;;14.20;1.00;;;;;;4963325;28;20043;-71
2023/01/03 13:31:44;;;;;;;30.42;14.80;;;14.20;1.00;;;;;;4964439;28;20464;-73
2023/01/03 13:34:36;;;;;;;28.08;13.02;;;14.20;1.00;;;;;;4964007;28;20486;-73
2023/01/03 13:37:16;;;;;;;20.02;11.75;;;14.20;1.00;;;;;;4957400;28;20141;-72
2023/01/03 13:40:27;;;;;;;20.83;10.75;;;14.20;1.00;;;;;;4962406;28;20118;-71
2023/01/03 13:43:19;;;;;;;19.92;10.95;;;14.20;1.00;;;;;;4963467;28;20046;-73
2023/01/03 13:45:53;;;;;;;19.70;12.45;;;14.20;1.00;;;;;;4961930;28;20461;-71
2023/01/03 13:48:30;;;;;;;23.27;11.95;;;14.20;1.00;;;;;;4962146;28;20047;-72
2023/01/03 13:51:28;;;;;;;23.25;11.85;;;14.20;1.00;;;;;;4962228;28;20108;-72
2023/01/03 13:54:01;;;;;;;24.73;12.65;;;14.10;1.00;;;;;;4970757;28;20729;-73
2023/01/03 13:56:31;;;;;;;26.30;14.43;;;14.10;1.00;;;;;;4967599;28;20145;-72